createdAt,value
2018-12-17T00:00:21.983Z,76.06
2018-12-17T00:01:21.975Z,76.16
2018-12-17T00:02:21.956Z,75.46
2018-12-17T00:03:21.930Z,75.32
2018-12-17T00:04:21.956Z,75.12
2018-12-17T00:05:21.930Z,76.40
2018-12-17T00:06:21.891Z,75.67
2018-12-17T00:07:21.886Z,75.53
2018-12-17T00:08:21.875Z,75.43
2018-12-17T00:09:21.867Z,75.57
2018-12-17T00:10:21.899Z,75.46
2018-12-17T00:11:21.846Z,76.78
2018-12-17T00:12:21.833Z,76.72
2018-12-17T00:13:21.858Z,77.20
2018-12-17T00:14:21.807Z,76.20
2018-12-17T00:15:21.967Z,76.78
2018-12-17T00:16:21.828Z,76.68
2018-12-17T00:17:21.791Z,76.82
2018-12-17T00:18:21.768Z,76.72
2018-12-17T00:19:21.756Z,76.82
2018-12-17T00:20:21.760Z,76.72
2018-12-17T00:21:21.766Z,76.78
2018-12-17T00:22:21.756Z,76.89
2018-12-17T00:23:21.711Z,75.95
2018-12-17T00:24:21.715Z,75.67
2018-12-17T00:25:21.688Z,76.99
2018-12-17T00:26:21.721Z,76.06
2018-12-17T00:27:21.677Z,76.09
2018-12-17T00:28:21.666Z,76.20
2018-12-17T00:29:21.654Z,76.92
2018-12-17T00:30:21.638Z,76.61
2018-12-17T00:31:21.640Z,76.82
2018-12-17T00:32:21.947Z,77.13
2018-12-17T00:33:21.618Z,76.92
2018-12-17T00:34:21.596Z,76.82
2018-12-17T00:35:21.625Z,76.92
2018-12-17T00:36:21.578Z,76.20
2018-12-17T00:37:21.586Z,76.92
2018-12-17T00:38:21.555Z,76.82
2018-12-17T00:39:21.561Z,76.72
2018-12-17T00:40:21.538Z,75.88
2018-12-17T00:41:21.520Z,75.88
2018-12-17T00:42:21.550Z,77.13
2018-12-17T00:43:21.508Z,77.03
2018-12-17T00:44:21.490Z,76.09
2018-12-17T00:45:21.515Z,75.88
2018-12-17T00:46:21.469Z,77.10
2018-12-17T00:47:21.467Z,75.88
2018-12-17T00:48:21.502Z,75.46
2018-12-17T00:49:21.435Z,76.72
2018-12-17T00:50:21.429Z,76.40
2018-12-17T00:51:21.434Z,76.92
2018-12-17T00:52:21.446Z,77.03
2018-12-17T00:53:21.469Z,76.82
2018-12-17T00:54:21.467Z,76.30
2018-12-17T00:55:21.375Z,75.88
2018-12-17T00:56:21.374Z,75.78
2018-12-17T00:57:21.364Z,76.16
2018-12-17T00:58:21.371Z,76.68
2018-12-17T00:59:21.333Z,76.78
2018-12-17T01:00:21.318Z,76.89
2018-12-17T01:01:21.321Z,77.03
2018-12-17T01:02:21.302Z,76.72
2018-12-17T01:03:21.306Z,76.82
2018-12-17T01:04:21.298Z,76.72
2018-12-17T01:05:21.267Z,76.82
2018-12-17T01:06:21.260Z,76.92
2018-12-17T01:07:21.239Z,77.03
2018-12-17T01:08:21.231Z,77.31
2018-12-17T01:09:21.242Z,77.23
2018-12-17T01:10:21.218Z,77.20
2018-12-17T01:11:21.210Z,77.45
2018-12-17T01:12:21.244Z,77.41
2018-12-17T01:13:21.183Z,76.89
2018-12-17T01:14:21.224Z,77.41
2018-12-17T01:15:21.155Z,77.34
2018-12-17T01:16:21.160Z,77.51
2018-12-17T01:17:21.139Z,77.51
2018-12-17T01:18:21.133Z,77.20
2018-12-17T01:19:21.113Z,77.20
2018-12-17T01:20:21.171Z,77.03
2018-12-17T01:21:21.113Z,76.99
2018-12-17T01:22:21.079Z,77.41
2018-12-17T01:23:21.083Z,77.86
2018-12-17T01:24:21.081Z,77.86
2018-12-17T01:25:21.095Z,77.23
2018-12-17T01:26:21.036Z,78.49
2018-12-17T01:27:21.037Z,77.76
2018-12-17T01:28:22.359Z,77.86
2018-12-17T01:29:21.002Z,77.93
2018-12-17T01:30:21.032Z,78.77
2018-12-17T01:31:20.990Z,77.93
2018-12-17T01:32:20.980Z,78.77
2018-12-17T01:33:20.981Z,78.87
2018-12-17T01:34:20.952Z,78.56
2018-12-17T01:35:20.957Z,78.24
2018-12-17T01:36:20.961Z,77.97
2018-12-17T01:37:20.918Z,78.17
2018-12-17T01:38:20.929Z,78.66
2018-12-17T01:39:20.900Z,78.49
2018-12-17T01:40:20.891Z,78.56
2018-12-17T01:41:20.909Z,78.56
2018-12-17T01:42:20.864Z,78.56
2018-12-17T01:43:20.857Z,78.87
2018-12-17T01:44:20.840Z,77.72
2018-12-17T01:45:20.843Z,77.93
2018-12-17T01:46:20.848Z,78.24
2018-12-17T01:47:20.829Z,78.66
2018-12-17T01:48:20.811Z,78.87
2018-12-17T01:49:20.790Z,78.77
2018-12-17T01:50:20.806Z,79.08
2018-12-17T01:51:20.802Z,78.45
2018-12-17T01:52:20.764Z,78.14
2018-12-17T01:53:20.747Z,78.45
2018-12-17T01:54:20.733Z,78.14
2018-12-17T01:55:20.729Z,78.24
2018-12-17T01:56:20.757Z,78.24
2018-12-17T01:57:20.705Z,79.08
2018-12-17T01:58:20.696Z,78.77
2018-12-17T01:59:20.701Z,78.77
2018-12-17T02:00:20.671Z,78.56
2018-12-17T02:01:20.664Z,78.24
2018-12-17T02:02:20.683Z,79.08
2018-12-17T02:03:20.643Z,79.39
2018-12-17T02:04:20.630Z,78.45
2018-12-17T02:05:20.618Z,78.45
2018-12-17T02:06:20.608Z,78.14
2018-12-17T02:07:20.605Z,79.25
2018-12-17T02:08:20.619Z,78.56
2018-12-17T02:09:20.572Z,79.08
2018-12-17T02:10:20.569Z,79.18
2018-12-17T02:11:20.555Z,78.97
2018-12-17T02:12:20.547Z,79.14
2018-12-17T02:13:20.568Z,79.18
2018-12-17T02:14:20.528Z,79.08
2018-12-17T02:15:20.508Z,78.63
2018-12-17T02:16:20.513Z,78.20
2018-12-17T02:17:20.493Z,79.14
2018-12-17T02:18:20.534Z,79.49
2018-12-17T02:19:20.477Z,79.60
2018-12-17T02:20:20.461Z,79.04
2018-12-17T02:21:20.450Z,79.08
2018-12-17T02:22:20.475Z,79.18
2018-12-17T02:23:20.428Z,79.91
2018-12-17T02:24:20.470Z,80.12
2018-12-17T02:25:20.406Z,79.91
2018-12-17T02:26:20.389Z,80.02
2018-12-17T02:27:20.420Z,80.64
2018-12-17T02:28:20.388Z,80.43
2018-12-17T02:29:20.377Z,80.08
2018-12-17T02:30:20.373Z,80.85
2018-12-17T02:31:20.342Z,80.19
2018-12-17T02:32:20.327Z,80.43
2018-12-17T02:33:20.329Z,80.54
2018-12-17T02:34:20.348Z,80.22
2018-12-17T02:35:20.293Z,80.54
2018-12-17T02:36:20.304Z,80.64
2018-12-17T02:37:20.279Z,80.85
2018-12-17T02:38:20.264Z,80.85
2018-12-17T02:39:20.257Z,80.43
2018-12-17T02:40:20.259Z,80.54
2018-12-17T02:41:20.257Z,80.95
2018-12-17T02:42:20.259Z,80.95
2018-12-17T02:43:20.215Z,80.95
2018-12-17T02:44:20.221Z,81.26
2018-12-17T02:45:20.221Z,81.47
2018-12-17T02:46:20.182Z,80.95
2018-12-17T02:47:20.215Z,81.58
2018-12-17T02:48:20.173Z,81.89
2018-12-17T02:49:20.143Z,81.89
2018-12-17T02:50:20.162Z,82.10
2018-12-17T02:51:20.198Z,82.20
2018-12-17T02:52:20.114Z,81.89
2018-12-17T02:53:20.101Z,81.79
2018-12-17T02:54:20.103Z,81.54
2018-12-17T02:55:20.089Z,81.26
2018-12-17T02:56:20.117Z,81.37
2018-12-17T02:57:20.059Z,82.20
2018-12-17T02:58:20.052Z,81.58
2018-12-17T02:59:20.071Z,81.99
2018-12-17T03:00:20.035Z,81.68
2018-12-17T03:01:20.043Z,81.99
2018-12-17T03:02:20.014Z,81.89
2018-12-17T03:03:20.001Z,81.99
2018-12-17T03:04:19.980Z,82.41
2018-12-17T03:05:20.005Z,82.20
2018-12-17T03:06:19.992Z,82.41
2018-12-17T03:07:19.961Z,81.99
2018-12-17T03:08:20.025Z,81.68
2018-12-17T03:09:19.934Z,81.99
2018-12-17T03:10:19.929Z,81.68
2018-12-17T03:11:19.907Z,81.99
2018-12-17T03:12:19.916Z,82.41
2018-12-17T03:13:19.897Z,82.51
2018-12-17T03:14:19.909Z,82.20
2018-12-17T03:15:19.873Z,82.10
2018-12-17T03:16:19.854Z,82.62
2018-12-17T03:17:19.849Z,82.41
2018-12-17T03:18:19.954Z,82.20
2018-12-17T03:19:19.897Z,82.17
2018-12-17T03:20:19.860Z,81.89
2018-12-17T03:21:19.808Z,82.31
2018-12-17T03:22:19.793Z,81.99
2018-12-17T03:23:19.798Z,82.10
2018-12-17T03:24:19.822Z,82.41
2018-12-17T03:25:19.759Z,81.99
2018-12-17T03:26:19.754Z,82.48
2018-12-17T03:27:19.740Z,82.37
2018-12-17T03:28:19.732Z,82.37
2018-12-17T03:29:19.759Z,81.85
2018-12-17T03:30:19.730Z,81.99
2018-12-17T03:31:19.752Z,82.17
2018-12-17T03:32:19.696Z,82.37
2018-12-17T03:33:19.676Z,81.96
2018-12-17T03:34:19.779Z,81.79
2018-12-17T03:35:19.687Z,82.06
2018-12-17T03:36:19.652Z,82.10
2018-12-17T03:37:19.651Z,81.68
2018-12-17T03:38:19.636Z,82.20
2018-12-17T03:39:19.612Z,82.51
2018-12-17T03:40:19.628Z,83.35
2018-12-17T03:41:19.619Z,83.66
2018-12-17T03:42:19.583Z,83.52
2018-12-17T03:43:19.587Z,82.89
2018-12-17T03:44:19.560Z,82.72
2018-12-17T03:45:19.605Z,82.82
2018-12-17T03:46:19.558Z,82.27
2018-12-17T03:47:19.530Z,82.17
2018-12-17T03:48:19.518Z,82.27
2018-12-17T03:49:19.571Z,82.68
2018-12-17T03:50:19.529Z,83.00
2018-12-17T03:51:19.521Z,82.17
2018-12-17T03:52:19.521Z,82.37
2018-12-17T03:53:19.475Z,82.17
2018-12-17T03:54:19.455Z,82.06
2018-12-17T03:55:19.460Z,82.17
2018-12-17T03:56:19.449Z,82.48
2018-12-17T03:57:19.420Z,83.10
2018-12-17T03:58:19.451Z,82.68
2018-12-17T03:59:19.404Z,82.27
2018-12-17T04:00:19.399Z,82.48
2018-12-17T04:01:19.408Z,82.37
2018-12-17T04:02:19.396Z,82.06
2018-12-17T04:03:19.357Z,82.37
2018-12-17T04:04:19.352Z,82.17
2018-12-17T04:05:19.339Z,81.96
2018-12-17T04:06:19.337Z,82.17
2018-12-17T04:07:19.359Z,81.81
2018-12-17T04:08:19.305Z,81.81
2018-12-17T04:09:19.310Z,81.92
2018-12-17T04:10:19.328Z,81.60
2018-12-17T04:11:19.284Z,81.81
2018-12-17T04:12:19.291Z,81.71
2018-12-17T04:13:19.281Z,81.92
2018-12-17T04:14:19.243Z,81.71
2018-12-17T04:15:19.234Z,81.60
2018-12-17T04:16:19.246Z,81.71
2018-12-17T04:17:19.253Z,81.81
2018-12-17T04:18:19.227Z,81.81
2018-12-17T04:19:19.186Z,81.81
2018-12-17T04:20:19.171Z,81.71
2018-12-17T04:21:19.168Z,82.34
2018-12-17T04:22:19.177Z,81.81
2018-12-17T04:23:19.162Z,81.50
2018-12-17T04:24:19.187Z,81.50
2018-12-17T04:25:19.149Z,81.50
2018-12-17T04:26:19.113Z,82.13
2018-12-17T04:27:19.110Z,82.34
2018-12-17T04:28:19.107Z,82.34
2018-12-17T04:29:19.077Z,82.13
2018-12-17T04:30:19.077Z,81.81
2018-12-17T04:31:19.069Z,81.92
2018-12-17T04:32:19.051Z,82.13
2018-12-17T04:33:19.064Z,82.65
2018-12-17T04:34:19.024Z,82.17
2018-12-17T04:35:19.020Z,82.34
2018-12-17T04:36:19.017Z,81.75
2018-12-17T04:37:18.995Z,82.48
2018-12-17T04:38:18.988Z,82.27
2018-12-17T04:39:18.993Z,82.37
2018-12-17T04:40:18.966Z,82.17
2018-12-17T04:41:18.947Z,81.75
2018-12-17T04:42:18.968Z,82.13
2018-12-17T04:43:18.955Z,81.85
2018-12-17T04:44:18.963Z,81.71
2018-12-17T04:45:18.932Z,81.92
2018-12-17T04:46:18.929Z,82.13
2018-12-17T04:47:18.881Z,82.03
2018-12-17T04:48:18.885Z,81.71
2018-12-17T04:49:18.900Z,81.81
2018-12-17T04:50:18.848Z,81.50
2018-12-17T04:51:18.838Z,81.40
2018-12-17T04:52:18.828Z,81.19
2018-12-17T04:53:18.817Z,82.03
2018-12-17T04:54:18.827Z,81.71
2018-12-17T04:55:18.834Z,81.92
2018-12-17T04:56:18.785Z,81.71
2018-12-17T04:57:18.772Z,82.23
2018-12-17T04:58:18.772Z,81.92
2018-12-17T04:59:18.754Z,82.03
2018-12-17T05:00:18.771Z,82.13
2018-12-17T05:01:18.732Z,81.96
2018-12-17T05:02:18.721Z,82.13
2018-12-17T05:03:18.742Z,82.06
2018-12-17T05:04:18.696Z,82.37
2018-12-17T05:05:18.721Z,81.85
2018-12-17T05:06:18.682Z,81.96
2018-12-17T05:07:18.671Z,81.75
2018-12-17T05:08:18.661Z,81.92
2018-12-17T05:09:18.659Z,81.65
2018-12-17T05:10:18.672Z,81.50
2018-12-17T05:11:18.639Z,82.34
2018-12-17T05:12:18.619Z,82.13
2018-12-17T05:13:18.609Z,81.71
2018-12-17T05:14:18.629Z,82.34
2018-12-17T05:15:18.675Z,82.13
2018-12-17T05:16:18.571Z,81.92
2018-12-17T05:17:18.568Z,81.92
2018-12-17T05:18:18.557Z,81.60
2018-12-17T05:19:18.539Z,81.81
2018-12-17T05:20:18.560Z,81.81
2018-12-17T05:21:18.520Z,82.17
2018-12-17T05:22:18.516Z,82.03
2018-12-17T05:23:18.523Z,82.37
2018-12-17T05:24:18.491Z,82.65
2018-12-17T05:25:18.475Z,82.37
2018-12-17T05:26:18.492Z,82.58
2018-12-17T05:27:18.449Z,82.34
2018-12-17T05:28:18.454Z,82.03
2018-12-17T05:29:21.540Z,81.60
2018-12-17T05:30:18.420Z,81.71
2018-12-17T05:31:18.446Z,81.60
2018-12-17T05:32:18.431Z,81.50
2018-12-17T05:33:18.393Z,81.71
2018-12-17T05:34:18.388Z,81.81
2018-12-17T05:35:18.417Z,81.71
2018-12-17T05:36:18.399Z,81.60
2018-12-17T05:37:18.349Z,81.60
2018-12-17T05:38:18.358Z,81.60
2018-12-17T05:39:18.378Z,81.81
2018-12-17T05:40:18.330Z,82.03
2018-12-17T05:41:18.325Z,81.71
2018-12-17T05:42:18.323Z,81.81
2018-12-17T05:43:18.301Z,81.60
2018-12-17T05:44:18.277Z,81.85
2018-12-17T05:45:18.268Z,81.81
2018-12-17T05:46:18.251Z,82.23
2018-12-17T05:47:18.269Z,81.71
2018-12-17T05:48:18.231Z,82.13
2018-12-17T05:49:18.231Z,81.71
2018-12-17T05:50:18.213Z,81.85
2018-12-17T05:51:18.213Z,81.81
2018-12-17T05:52:18.242Z,81.75
2018-12-17T05:53:18.175Z,81.96
2018-12-17T05:54:18.167Z,81.96
2018-12-17T05:55:18.197Z,81.75
2018-12-17T05:56:18.146Z,82.17
2018-12-17T05:57:18.134Z,81.50
2018-12-17T05:58:18.156Z,82.37
2018-12-17T05:59:18.113Z,82.27
2018-12-17T06:00:18.160Z,82.17
2018-12-17T06:01:18.097Z,81.85
2018-12-17T06:02:18.105Z,81.96
2018-12-17T06:03:18.095Z,81.85
2018-12-17T06:04:18.074Z,81.65
2018-12-17T06:05:18.070Z,81.81
2018-12-17T06:06:18.039Z,81.92
2018-12-17T06:07:18.066Z,82.23
2018-12-17T06:08:18.067Z,81.81
2018-12-17T06:09:18.011Z,81.60
2018-12-17T06:10:18.019Z,81.71
2018-12-17T06:11:17.985Z,82.03
2018-12-17T06:12:17.992Z,81.40
2018-12-17T06:13:18.007Z,81.50
2018-12-17T06:14:18.001Z,81.81
2018-12-17T06:15:17.942Z,81.29
2018-12-17T06:16:17.938Z,81.29
2018-12-17T06:17:17.920Z,80.74
2018-12-17T06:18:17.926Z,81.05
2018-12-17T06:19:17.932Z,80.84
2018-12-17T06:20:17.887Z,80.74
2018-12-17T06:21:17.903Z,80.94
2018-12-17T06:22:17.882Z,80.63
2018-12-17T06:23:17.900Z,80.74
2018-12-17T06:24:17.900Z,81.46
2018-12-17T06:25:17.853Z,81.15
2018-12-17T06:26:17.829Z,80.74
2018-12-17T06:27:17.820Z,80.74
2018-12-17T06:28:17.825Z,80.74
2018-12-17T06:29:17.913Z,80.84
2018-12-17T06:30:17.797Z,80.84
2018-12-17T06:31:17.795Z,81.15
2018-12-17T06:32:17.809Z,80.84
2018-12-17T06:33:17.752Z,80.63
2018-12-17T06:34:17.770Z,80.94
2018-12-17T06:35:17.765Z,80.84
2018-12-17T06:36:17.715Z,80.84
2018-12-17T06:37:17.716Z,80.84
2018-12-17T06:38:17.692Z,80.94
2018-12-17T06:39:17.699Z,80.84
2018-12-17T06:40:17.701Z,80.84
2018-12-17T06:41:17.702Z,80.94
2018-12-17T06:42:17.667Z,81.26
2018-12-17T06:43:17.636Z,80.53
2018-12-17T06:44:17.645Z,81.05
2018-12-17T06:45:17.636Z,80.84
2018-12-17T06:46:17.607Z,80.53
2018-12-17T06:47:17.615Z,80.53
2018-12-17T06:48:17.599Z,81.01
2018-12-17T06:49:17.593Z,81.22
2018-12-17T06:50:17.613Z,80.91
2018-12-17T06:51:17.555Z,80.84
2018-12-17T06:52:17.543Z,80.91
2018-12-17T06:53:17.563Z,80.74
2018-12-17T06:54:17.520Z,80.80
2018-12-17T06:55:17.573Z,80.43
2018-12-17T06:56:17.503Z,80.39
2018-12-17T06:57:17.512Z,80.29
2018-12-17T06:58:17.478Z,80.84
2018-12-17T06:59:17.511Z,80.70
2018-12-17T07:00:17.488Z,80.53
2018-12-17T07:01:17.474Z,80.94
2018-12-17T07:02:17.449Z,80.94
2018-12-17T07:03:17.428Z,80.84
2018-12-17T07:04:17.421Z,80.84
2018-12-17T07:05:17.434Z,81.05
2018-12-17T07:06:17.432Z,80.74
2018-12-17T07:07:17.383Z,81.05
2018-12-17T07:08:17.377Z,80.63
2018-12-17T07:09:17.361Z,80.84
2018-12-17T07:10:17.382Z,80.84
2018-12-17T07:11:17.368Z,80.84
2018-12-17T07:12:17.331Z,80.63
2018-12-17T07:13:17.356Z,81.15
2018-12-17T07:14:17.332Z,81.15
2018-12-17T07:15:17.312Z,81.15
2018-12-17T07:16:17.343Z,80.94
2018-12-17T07:17:17.288Z,80.74
2018-12-17T07:18:17.273Z,80.74
2018-12-17T07:19:17.254Z,80.74
2018-12-17T07:20:17.254Z,81.15
2018-12-17T07:21:17.260Z,81.57
2018-12-17T07:22:17.263Z,81.88
2018-12-17T07:23:17.235Z,81.05
2018-12-17T07:24:17.203Z,80.84
2018-12-17T07:25:17.202Z,81.15
2018-12-17T07:26:17.218Z,80.84
2018-12-17T07:27:17.214Z,80.70
2018-12-17T07:28:17.171Z,80.63
2018-12-17T07:29:17.159Z,81.15
2018-12-17T07:30:17.141Z,81.15
2018-12-17T07:31:17.173Z,80.84
2018-12-17T07:32:18.632Z,81.26
2018-12-17T07:33:17.105Z,81.05
2018-12-17T07:34:17.218Z,81.05
2018-12-17T07:35:17.092Z,81.26
2018-12-17T07:36:17.072Z,80.80
2018-12-17T07:37:17.089Z,80.70
2018-12-17T07:38:17.068Z,80.84
2018-12-17T07:39:17.053Z,80.60
2018-12-17T07:40:17.031Z,80.60
2018-12-17T07:41:17.020Z,80.60
2018-12-17T07:42:17.054Z,80.70
2018-12-17T07:43:17.005Z,80.91
2018-12-17T07:44:17.003Z,80.70
2018-12-17T07:45:16.986Z,80.70
2018-12-17T07:46:16.966Z,81.12
2018-12-17T07:47:16.962Z,81.01
2018-12-17T07:48:17.019Z,80.80
2018-12-17T07:49:16.950Z,80.70
2018-12-17T07:50:16.931Z,80.91
2018-12-17T07:51:16.915Z,80.80
2018-12-17T07:52:16.943Z,80.70
2018-12-17T07:53:16.893Z,81.32
2018-12-17T07:54:16.881Z,81.95
2018-12-17T07:55:16.870Z,81.12
2018-12-17T07:56:16.858Z,80.39
2018-12-17T07:57:16.896Z,80.70
2018-12-17T07:58:16.846Z,80.91
2018-12-17T07:59:16.835Z,81.12
2018-12-17T08:00:16.830Z,80.70
2018-12-17T08:01:16.826Z,80.35
2018-12-17T08:02:16.792Z,81.01
2018-12-17T08:03:16.821Z,81.12
2018-12-17T08:04:16.787Z,80.70
2018-12-17T08:05:16.767Z,80.60
2018-12-17T08:06:16.751Z,80.49
2018-12-17T08:07:16.756Z,80.56
2018-12-17T08:08:16.749Z,80.49
2018-12-17T08:09:16.753Z,80.60
2018-12-17T08:10:16.706Z,80.77
2018-12-17T08:11:16.699Z,80.66
2018-12-17T08:12:16.774Z,80.66
2018-12-17T08:13:16.712Z,80.60
2018-12-17T08:14:16.674Z,79.94
2018-12-17T08:15:16.669Z,79.45
2018-12-17T08:16:16.670Z,79.83
2018-12-17T08:17:16.633Z,79.87
2018-12-17T08:18:16.678Z,79.83
2018-12-17T08:19:16.644Z,79.94
2018-12-17T08:20:16.609Z,79.94
2018-12-17T08:21:16.602Z,79.83
2018-12-17T08:22:16.591Z,79.62
2018-12-17T08:23:16.573Z,79.41
2018-12-17T08:24:16.622Z,80.15
2018-12-17T08:25:16.549Z,79.83
2018-12-17T08:26:16.542Z,80.04
2018-12-17T08:27:16.557Z,79.52
2018-12-17T08:28:16.531Z,79.62
2018-12-17T08:29:16.559Z,79.62
2018-12-17T08:30:16.498Z,79.80
2018-12-17T08:31:16.494Z,79.10
2018-12-17T08:32:16.482Z,78.96
2018-12-17T08:33:16.490Z,79.21
2018-12-17T08:34:16.478Z,79.17
2018-12-17T08:35:16.450Z,79.17
2018-12-17T08:36:16.472Z,78.65
2018-12-17T08:37:16.425Z,78.13
2018-12-17T08:38:16.471Z,77.92
2018-12-17T08:39:16.405Z,78.41
2018-12-17T08:40:16.412Z,78.72
2018-12-17T08:41:23.990Z,78.20
2018-12-17T08:42:16.369Z,77.47
2018-12-17T08:43:16.365Z,77.78
2018-12-17T08:44:16.355Z,77.99
2018-12-17T08:45:16.432Z,77.78
2018-12-17T08:46:16.325Z,77.06
2018-12-17T08:47:16.329Z,76.95
2018-12-17T08:48:16.307Z,77.58
2018-12-17T08:49:16.291Z,77.89
2018-12-17T08:50:16.334Z,77.89
2018-12-17T08:51:16.274Z,77.78
2018-12-17T08:52:16.258Z,77.89
2018-12-17T08:53:16.280Z,77.78
2018-12-17T08:54:16.254Z,77.58
2018-12-17T08:55:16.233Z,77.78
2018-12-17T08:56:16.253Z,77.89
2018-12-17T08:57:16.248Z,78.09
2018-12-17T08:58:16.192Z,77.89
2018-12-17T08:59:16.234Z,77.78
2018-12-17T09:00:16.198Z,77.68
2018-12-17T09:01:16.172Z,78.61
2018-12-17T09:02:16.155Z,77.54
2018-12-17T09:03:16.162Z,77.33
2018-12-17T09:04:16.128Z,77.02
2018-12-17T09:05:16.123Z,77.23
2018-12-17T09:06:16.118Z,76.92
2018-12-17T09:07:16.126Z,76.50
2018-12-17T09:08:16.103Z,76.61
2018-12-17T09:09:16.070Z,76.37
2018-12-17T09:10:16.203Z,76.16
2018-12-17T09:11:16.055Z,76.37
2018-12-17T09:12:16.061Z,76.47
2018-12-17T09:13:16.024Z,76.57
2018-12-17T09:14:16.047Z,76.47
2018-12-17T09:15:16.056Z,76.57
2018-12-17T09:16:16.042Z,75.43
2018-12-17T09:17:16.022Z,76.64
2018-12-17T09:18:15.985Z,76.54
2018-12-17T09:19:15.970Z,75.81
2018-12-17T09:20:15.950Z,75.81
2018-12-17T09:21:16.020Z,75.71
2018-12-17T09:22:15.961Z,76.54
2018-12-17T09:23:15.928Z,75.60
2018-12-17T09:24:15.927Z,75.40
2018-12-17T09:25:15.903Z,75.71
2018-12-17T09:26:15.881Z,75.40
2018-12-17T09:27:15.913Z,75.60
2018-12-17T09:28:15.869Z,75.71
2018-12-17T09:29:15.867Z,75.40
2018-12-17T09:30:18.498Z,74.74
2018-12-17T09:31:15.830Z,75.26
2018-12-17T09:32:15.827Z,74.84
2018-12-17T09:33:15.834Z,74.22
2018-12-17T09:34:15.877Z,74.32
2018-12-17T09:35:15.803Z,74.22
2018-12-17T09:36:15.773Z,74.19
2018-12-17T09:37:15.762Z,74.29
2018-12-17T09:38:15.812Z,73.77
2018-12-17T09:39:15.788Z,74.50
2018-12-17T09:40:15.731Z,73.67
2018-12-17T09:41:15.765Z,74.19
2018-12-17T09:42:15.720Z,73.77
2018-12-17T09:43:15.770Z,74.29
2018-12-17T09:44:15.712Z,74.77
2018-12-17T09:45:15.675Z,73.57
2018-12-17T09:46:15.673Z,74.40
2018-12-17T09:47:15.679Z,74.29
2018-12-17T09:48:15.647Z,73.88
2018-12-17T09:49:15.650Z,73.88
2018-12-17T09:50:16.696Z,74.81
2018-12-17T09:51:19.534Z,74.71
2018-12-17T09:52:15.636Z,73.25
2018-12-17T09:53:15.603Z,74.08
2018-12-17T09:54:15.603Z,73.80
2018-12-17T09:55:15.580Z,74.53
2018-12-17T09:56:15.552Z,74.19
2018-12-17T09:57:15.544Z,74.32
2018-12-17T09:58:15.594Z,74.53
2018-12-17T09:59:15.535Z,74.43
2018-12-17T10:00:15.513Z,74.53
2018-12-17T10:01:15.497Z,74.43
2018-12-17T10:02:15.502Z,74.19
2018-12-17T10:03:15.482Z,74.71
2018-12-17T10:04:15.488Z,73.57
2018-12-17T10:05:15.454Z,74.40
2018-12-17T10:06:15.446Z,73.57
2018-12-17T10:07:15.448Z,74.60
2018-12-17T10:08:15.445Z,74.71
2018-12-17T10:09:15.408Z,74.71
2018-12-17T10:10:15.404Z,73.94
2018-12-17T10:11:15.407Z,74.05
2018-12-17T10:12:15.375Z,73.43
2018-12-17T10:13:15.407Z,74.05
2018-12-17T10:14:15.376Z,74.05
2018-12-17T10:15:15.364Z,74.36
2018-12-17T10:16:15.333Z,73.08
2018-12-17T10:17:15.326Z,72.67
2018-12-17T10:18:15.310Z,72.67
2018-12-17T10:19:15.315Z,73.60
2018-12-17T10:20:15.304Z,73.29
2018-12-17T10:21:15.274Z,72.98
2018-12-17T10:22:15.311Z,72.98
2018-12-17T10:23:15.264Z,72.77
2018-12-17T10:24:15.265Z,73.05
2018-12-17T10:25:15.232Z,73.71
2018-12-17T10:26:15.223Z,73.25
2018-12-17T10:27:16.423Z,72.94
2018-12-17T10:28:15.205Z,73.15
2018-12-17T10:29:15.239Z,73.15
2018-12-17T10:30:15.206Z,73.25
2018-12-17T10:31:15.172Z,73.15
2018-12-17T10:32:15.163Z,72.60
2018-12-17T10:33:15.159Z,73.12
2018-12-17T10:34:15.164Z,72.71
2018-12-17T10:35:15.143Z,73.12
2018-12-17T10:36:15.135Z,72.71
2018-12-17T10:37:15.101Z,72.08
2018-12-17T10:38:15.102Z,71.36
2018-12-17T10:39:15.158Z,71.26
2018-12-17T10:40:15.094Z,71.98
2018-12-17T10:41:15.076Z,72.08
2018-12-17T10:42:15.071Z,72.08
2018-12-17T10:43:15.060Z,71.78
2018-12-17T10:44:15.039Z,72.19
2018-12-17T10:45:15.043Z,71.78
2018-12-17T10:46:15.015Z,71.78
2018-12-17T10:47:14.993Z,71.36
2018-12-17T10:48:14.986Z,71.98
2018-12-17T10:49:14.975Z,72.05
2018-12-17T10:50:14.996Z,71.95
2018-12-17T10:51:14.948Z,71.12
2018-12-17T10:52:14.964Z,71.53
2018-12-17T10:53:14.937Z,71.33
2018-12-17T10:54:15.004Z,71.95
2018-12-17T10:55:14.908Z,72.16
2018-12-17T10:56:14.928Z,71.64
2018-12-17T10:57:14.883Z,72.98
2018-12-17T10:58:14.924Z,72.98
2018-12-17T10:59:14.862Z,72.16
2018-12-17T11:00:14.858Z,71.47
2018-12-17T11:01:14.890Z,72.78
2018-12-17T11:02:14.845Z,73.02
2018-12-17T11:03:14.823Z,72.81
2018-12-17T11:04:14.821Z,72.91
2018-12-17T11:05:14.796Z,73.22
2018-12-17T11:06:14.822Z,72.50
2018-12-17T11:07:14.777Z,72.47
2018-12-17T11:08:14.823Z,72.05
2018-12-17T11:09:14.761Z,71.88
2018-12-17T11:10:14.750Z,71.95
2018-12-17T11:11:14.799Z,72.81
2018-12-17T11:12:14.722Z,73.02
2018-12-17T11:13:14.776Z,71.98
2018-12-17T11:14:14.721Z,73.22
2018-12-17T11:15:14.692Z,72.60
2018-12-17T11:16:14.684Z,73.74
2018-12-17T11:17:14.690Z,73.43
2018-12-17T11:18:14.688Z,73.64
2018-12-17T11:19:14.679Z,73.02
2018-12-17T11:20:14.638Z,72.94
2018-12-17T11:21:14.625Z,72.50
2018-12-17T11:22:14.619Z,72.94
2018-12-17T11:23:14.613Z,72.50
2018-12-17T11:24:14.618Z,72.91
2018-12-17T11:25:14.590Z,72.22
2018-12-17T11:26:14.575Z,72.74
2018-12-17T11:27:14.558Z,73.05
2018-12-17T11:28:14.550Z,72.19
2018-12-17T11:29:14.580Z,72.08
2018-12-17T11:30:14.535Z,72.33
2018-12-17T11:31:14.517Z,72.43
2018-12-17T11:32:14.522Z,72.33
2018-12-17T11:33:14.534Z,73.15
2018-12-17T11:34:14.487Z,72.74
2018-12-17T11:35:14.512Z,72.33
2018-12-17T11:36:14.479Z,72.02
2018-12-17T11:37:14.461Z,72.33
2018-12-17T11:38:14.464Z,71.91
2018-12-17T11:39:14.438Z,71.60
2018-12-17T11:40:14.461Z,71.91
2018-12-17T11:41:14.430Z,72.33
2018-12-17T11:42:14.417Z,72.19
2018-12-17T11:43:14.386Z,72.50
2018-12-17T11:44:14.394Z,72.22
2018-12-17T11:45:14.386Z,71.91
2018-12-17T11:46:14.358Z,72.85
2018-12-17T11:47:14.348Z,72.53
2018-12-17T11:48:14.353Z,72.43
2018-12-17T11:49:14.335Z,72.85
2018-12-17T11:50:14.350Z,73.15
2018-12-17T11:51:14.300Z,73.05
2018-12-17T11:52:14.310Z,73.19
2018-12-17T11:53:14.297Z,73.08
2018-12-17T11:54:14.282Z,73.15
2018-12-17T11:55:14.274Z,72.74
2018-12-17T11:56:14.293Z,73.19
2018-12-17T11:57:14.234Z,72.98
2018-12-17T11:58:14.228Z,72.98
2018-12-17T11:59:14.244Z,72.98
2018-12-17T12:00:14.211Z,72.88
2018-12-17T12:01:14.228Z,73.15
2018-12-17T12:02:14.185Z,73.08
2018-12-17T12:03:14.186Z,73.08
2018-12-17T12:04:14.160Z,73.08
2018-12-17T12:05:14.150Z,73.60
2018-12-17T12:06:14.537Z,73.08
2018-12-17T12:07:14.129Z,73.19
2018-12-17T12:08:14.123Z,73.63
2018-12-17T12:09:14.107Z,74.12
2018-12-17T12:10:14.113Z,73.50
2018-12-17T12:11:14.083Z,74.02
2018-12-17T12:12:14.128Z,73.94
2018-12-17T12:13:14.081Z,73.91
2018-12-17T12:14:14.055Z,73.60
2018-12-17T12:15:14.324Z,73.91
2018-12-17T12:16:14.099Z,74.02
2018-12-17T12:17:14.047Z,73.50
2018-12-17T12:18:14.012Z,72.98
2018-12-17T12:19:14.031Z,73.50
2018-12-17T12:20:13.986Z,73.71
2018-12-17T12:21:13.985Z,73.19
2018-12-17T12:22:14.008Z,73.71
2018-12-17T12:23:14.113Z,72.98
2018-12-17T12:24:13.945Z,73.50
2018-12-17T12:25:13.977Z,74.02
2018-12-17T12:26:13.922Z,73.71
2018-12-17T12:27:13.967Z,73.81
2018-12-17T12:28:13.915Z,73.19
2018-12-17T12:29:13.903Z,73.60
2018-12-17T12:30:13.875Z,73.71
2018-12-17T12:31:13.870Z,73.29
2018-12-17T12:32:13.963Z,73.81
2018-12-17T12:33:13.842Z,73.60
2018-12-17T12:34:13.835Z,72.98
2018-12-17T12:35:13.842Z,73.39
2018-12-17T12:36:13.874Z,73.29
2018-12-17T12:37:13.811Z,73.60
2018-12-17T12:38:13.844Z,73.08
2018-12-17T12:39:13.816Z,73.60
2018-12-17T12:40:13.766Z,73.46
2018-12-17T12:41:13.758Z,73.71
2018-12-17T12:42:13.775Z,73.39
2018-12-17T12:43:13.743Z,73.19
2018-12-17T12:44:13.776Z,73.29
2018-12-17T12:45:13.718Z,73.60
2018-12-17T12:46:13.706Z,73.39
2018-12-17T12:47:13.700Z,73.29
2018-12-17T12:48:13.685Z,73.15
2018-12-17T12:49:13.681Z,73.98
2018-12-17T12:50:13.681Z,73.36
2018-12-17T12:51:13.684Z,73.29
2018-12-17T12:52:13.640Z,73.05